createdAt,value
2023-01-11T00:01:13.795Z,97824.34
2023-01-11T00:03:42.306Z,97825.16
2023-01-11T00:06:12.110Z,97824.66
2023-01-11T00:08:40.864Z,97823.84
2023-01-11T00:11:14.708Z,97826.91
2023-01-11T00:13:45.869Z,97822.50
2023-01-11T00:16:14.871Z,97825.28
2023-01-11T00:18:43.483Z,97825.28
2023-01-11T00:21:12.051Z,97820.88
2023-01-11T00:23:40.468Z,97821.19
2023-01-11T00:26:13.027Z,97822.00
2023-01-11T00:28:41.531Z,97815.69
2023-01-11T00:31:11.440Z,97810.47
2023-01-11T00:33:40.023Z,97803.03
2023-01-11T00:36:09.383Z,97795.09
2023-01-11T00:38:51.475Z,97800.59
2023-01-11T00:41:39.704Z,97799.78
2023-01-11T00:44:28.307Z,97791.81
2023-01-11T00:47:16.066Z,97790.19
2023-01-11T00:49:44.819Z,97779.19
2023-01-11T00:52:13.289Z,97778.38
2023-01-11T00:54:42.759Z,97771.22
2023-01-11T00:57:11.194Z,97770.41
2023-01-11T00:59:40.534Z,97770.41
2023-01-11T01:02:11.600Z,97766.03
2023-01-11T01:04:40.788Z,97767.16
2023-01-11T01:07:09.219Z,97764.41
2023-01-11T01:09:37.623Z,97771.03
2023-01-11T01:12:06.937Z,97766.66
2023-01-11T01:14:34.808Z,97777.34
2023-01-11T01:17:07.060Z,97774.91
2023-01-11T01:19:39.490Z,97767.78
2023-01-11T01:22:08.152Z,97773.28
2023-01-11T01:24:36.852Z,97765.00
2023-01-11T01:27:05.252Z,97755.94
2023-01-11T01:29:33.776Z,97748.81
2023-01-11T01:32:02.194Z,97749.63
2023-01-11T01:34:30.745Z,97753.50
2023-01-11T01:37:00.498Z,97753.50
2023-01-11T01:39:29.145Z,97751.88
2023-01-11T01:41:57.895Z,97749.09
2023-01-11T01:45:02.630Z,97741.97
2023-01-11T01:47:45.267Z,97735.66
2023-01-11T01:50:18.843Z,97739.22
2023-01-11T01:52:54.395Z,97735.97
2023-01-11T01:55:28.798Z,97734.34
2023-01-11T01:57:59.557Z,97719.44
2023-01-11T02:00:28.137Z,97717.81
2023-01-11T02:02:59.944Z,97711.19
2023-01-11T02:05:28.714Z,97706.81
2023-01-11T02:08:00.781Z,97709.88
2023-01-11T02:10:29.419Z,97710.69
2023-01-11T02:13:00.524Z,97706.31
2023-01-11T02:15:30.424Z,97705.47
2023-01-11T02:17:59.504Z,97703.53
2023-01-11T02:20:47.355Z,97696.41
2023-01-11T02:23:45.544Z,97696.41
2023-01-11T02:26:59.075Z,97690.91
2023-01-11T02:29:43.278Z,97688.16
2023-01-11T02:32:24.133Z,97681.03
2023-01-11T02:35:06.110Z,97687.66
2023-01-11T02:37:42.099Z,97685.72
2023-01-11T02:40:18.170Z,97682.16
2023-01-11T02:43:12.950Z,97675.00
2023-01-11T02:45:52.143Z,97669.50
2023-01-11T02:48:27.498Z,97667.88
2023-01-11T02:51:03.357Z,97670.63
2023-01-11T02:53:35.646Z,97671.75
2023-01-11T02:56:09.426Z,97671.75
2023-01-11T02:58:41.582Z,97670.13
2023-01-11T03:01:12.872Z,97674.50
2023-01-11T03:03:41.437Z,97671.75
2023-01-11T03:06:16.266Z,97663.00
2023-01-11T03:09:10.246Z,97661.88
2023-01-11T03:12:09.153Z,97654.72
2023-01-11T03:14:48.590Z,97662.19
2023-01-11T03:17:32.450Z,97657.47
2023-01-11T03:20:08.217Z,97643.72
2023-01-11T03:22:44.438Z,97645.66
2023-01-11T03:25:20.687Z,97645.97
2023-01-11T03:27:57.397Z,97650.34
2023-01-11T03:30:34.424Z,97641.59
2023-01-11T03:33:09.876Z,97643.22
2023-01-11T03:35:43.152Z,97639.66
2023-01-11T03:38:17.244Z,97651.47
2023-01-11T03:40:47.360Z,97643.22
2023-01-11T03:43:19.332Z,97643.22
2023-01-11T03:45:53.721Z,97641.59
2023-01-11T03:48:28.322Z,97644.34
2023-01-11T03:50:58.950Z,97638.34
2023-01-11T03:53:30.228Z,97642.72
2023-01-11T03:56:01.121Z,97639.16
2023-01-11T03:58:30.585Z,97645.47
2023-01-11T04:00:59.740Z,97636.41
2023-01-11T04:03:29.666Z,97641.09
2023-01-11T04:06:01.146Z,97638.66
2023-01-11T04:08:31.079Z,97639.47
2023-01-11T04:10:59.659Z,97625.69
2023-01-11T04:13:28.018Z,97629.56
2023-01-11T04:15:56.523Z,97626.00
2023-01-11T04:18:24.959Z,97621.31
2023-01-11T04:20:54.712Z,97624.88
2023-01-11T04:23:23.126Z,97624.88
2023-01-11T04:25:53.223Z,97624.06
2023-01-11T04:28:21.738Z,97613.06
2023-01-11T04:30:50.183Z,97612.56
2023-01-11T04:33:19.592Z,97619.69
2023-01-11T04:35:49.882Z,97621.63
2023-01-11T04:38:19.790Z,97622.44
2023-01-11T04:40:48.872Z,97625.50
2023-01-11T04:43:16.302Z,97619.19
2023-01-11T04:45:44.877Z,97621.94
2023-01-11T04:48:13.321Z,97620.81
2023-01-11T04:50:42.074Z,97613.69
2023-01-11T04:53:10.585Z,97610.13
2023-01-11T04:55:40.466Z,97613.69
2023-01-11T04:58:09.063Z,97601.84
2023-01-11T05:00:37.462Z,97597.16
2023-01-11T05:03:05.879Z,97595.53
2023-01-11T05:05:34.416Z,97590.84
2023-01-11T05:08:02.912Z,97582.59
2023-01-11T05:10:33.222Z,97581.78
2023-01-11T05:13:03.092Z,97587.28
2023-01-11T05:15:31.530Z,97582.09
2023-01-11T05:17:59.958Z,97588.41
2023-01-11T05:20:28.340Z,97584.53
2023-01-11T05:22:56.790Z,97575.78
2023-01-11T05:25:25.153Z,97582.91
2023-01-11T05:27:53.602Z,97578.53
2023-01-11T05:30:23.361Z,97573.53
2023-01-11T05:32:51.753Z,97573.53
2023-01-11T05:35:20.223Z,97574.66
2023-01-11T05:37:48.678Z,97574.34
2023-01-11T05:40:17.182Z,97579.03
2023-01-11T05:42:47.363Z,97578.22
2023-01-11T05:45:29.925Z,97573.53
2023-01-11T05:48:00.322Z,97569.16
2023-01-11T05:50:28.839Z,97568.03
2023-01-11T05:52:57.248Z,97575.16
2023-01-11T05:55:25.747Z,97563.34
2023-01-11T05:57:54.162Z,97574.34
2023-01-11T06:00:23.419Z,97563.34
2023-01-11T06:02:52.008Z,97565.28
2023-01-11T06:05:21.825Z,97571.28
2023-01-11T06:07:50.225Z,97568.03
2023-01-11T06:10:19.537Z,97568.84
2023-01-11T06:13:13.017Z,97571.91
2023-01-11T06:15:41.765Z,97562.53
2023-01-11T06:18:10.268Z,97564.16
2023-01-11T06:20:39.989Z,97555.88
2023-01-11T06:23:08.490Z,97547.63
2023-01-11T06:25:37.494Z,97540.50
2023-01-11T06:28:06.183Z,97541.31
2023-01-11T06:30:34.756Z,97540.50
2023-01-11T06:33:05.950Z,97545.19
2023-01-11T06:35:35.079Z,97557.00
2023-01-11T06:38:04.927Z,97564.16
2023-01-11T06:40:33.392Z,97547.13
2023-01-11T06:43:02.064Z,97557.00
2023-01-11T06:45:31.574Z,97545.19
2023-01-11T06:48:00.500Z,97545.19
2023-01-11T06:50:28.956Z,97539.69
2023-01-11T06:52:59.045Z,97536.13
2023-01-11T06:55:29.796Z,97527.06
2023-01-11T06:57:58.272Z,97528.69
2023-01-11T07:00:26.905Z,97533.38
2023-01-11T07:02:55.353Z,97534.38
2023-01-11T07:05:23.814Z,97537.00
2023-01-11T07:07:52.309Z,97533.50
2023-01-11T07:10:20.905Z,97536.31
2023-01-11T07:12:51.792Z,97539.13
2023-01-11T07:15:20.605Z,97534.63
2023-01-11T07:17:49.480Z,97536.13
2023-01-11T07:20:18.333Z,97530.47
2023-01-11T07:22:46.866Z,97522.72
2023-01-11T07:25:15.466Z,97527.59
2023-01-11T07:27:44.005Z,97532.47
2023-01-11T07:30:15.124Z,97524.22
2023-01-11T07:32:43.549Z,97526.34
2023-01-11T07:35:12.013Z,97519.19
2023-01-11T07:37:41.477Z,97523.25
2023-01-11T07:40:11.390Z,97515.00
2023-01-11T07:42:57.859Z,97520.81
2023-01-11T07:45:37.348Z,97512.88
2023-01-11T07:48:13.504Z,97518.22
2023-01-11T07:50:44.708Z,97514.97
2023-01-11T07:53:14.697Z,97507.81
2023-01-11T07:55:43.553Z,97510.91
2023-01-11T07:58:13.370Z,97510.91
2023-01-11T08:00:43.600Z,97523.84
2023-01-11T08:03:12.216Z,97517.84
2023-01-11T08:05:41.219Z,97523.34
2023-01-11T08:08:09.677Z,97522.22
2023-01-11T08:10:40.365Z,97515.59
2023-01-11T08:13:31.009Z,97515.78
2023-01-11T08:16:00.859Z,97520.34
2023-01-11T08:18:29.348Z,97511.44
2023-01-11T08:20:57.785Z,97521.31
2023-01-11T08:23:27.115Z,97516.31
2023-01-11T08:25:57.836Z,97516.81
2023-01-11T08:28:26.313Z,97527.81
2023-01-11T08:30:54.838Z,97532.22
2023-01-11T08:33:24.865Z,97531.09
2023-01-11T08:35:53.281Z,97533.88
2023-01-11T08:38:21.665Z,97537.72
2023-01-11T08:40:50.172Z,97542.41
2023-01-11T08:43:18.584Z,97531.41
2023-01-11T08:45:47.258Z,97536.09
2023-01-11T08:48:16.068Z,97527.00
2023-01-11T08:50:45.910Z,97537.84
2023-01-11T08:53:15.725Z,97536.09
2023-01-11T08:55:44.670Z,97548.72
2023-01-11T08:58:13.153Z,97537.72
2023-01-11T09:00:41.592Z,97540.78
2023-01-11T09:03:11.822Z,97543.53
2023-01-11T09:05:41.778Z,97551.00
2023-01-11T09:08:12.226Z,97543.22
2023-01-11T09:10:40.699Z,97551.81
2023-01-11T09:13:09.219Z,97549.38
2023-01-11T09:15:37.697Z,97546.94
2023-01-11T09:18:06.462Z,97548.88
2023-01-11T09:20:34.949Z,97552.44
2023-01-11T09:23:03.431Z,97542.53
2023-01-11T09:25:33.351Z,97542.88
2023-01-11T09:28:01.874Z,97537.34
2023-01-11T09:30:31.255Z,97552.25
2023-01-11T09:32:59.969Z,97538.00
2023-01-11T09:35:28.480Z,97539.75
2023-01-11T09:37:58.423Z,97532.59
2023-01-11T09:40:42.126Z,97526.59
2023-01-11T09:43:14.892Z,97530.47
2023-01-11T09:45:46.803Z,97534.38
2023-01-11T09:48:28.720Z,97531.63
2023-01-11T09:50:57.702Z,97542.13
2023-01-11T09:53:32.224Z,97534.50
2023-01-11T09:56:05.097Z,97520.53
2023-01-11T09:58:53.488Z,97516.97
2023-01-11T10:01:31.088Z,97517.47
2023-01-11T10:04:33.298Z,97519.09
2023-01-11T10:07:17.023Z,97518.47
2023-01-11T10:18:26.736Z,97493.06
2023-01-11T10:21:54.613Z,97490.31
2023-01-11T10:24:27.213Z,97488.03
2023-01-11T10:26:59.116Z,97489.69
2023-01-11T10:29:57.478Z,97494.38
2023-01-11T10:32:53.136Z,97484.16
2023-01-11T10:35:58.878Z,97488.53
2023-01-11T10:38:43.510Z,97495.69
2023-01-11T10:41:22.079Z,97490.16
2023-01-11T10:44:04.987Z,97490.16
2023-01-11T10:46:40.223Z,97489.03
2023-01-11T10:49:32.209Z,97489.03
2023-01-11T10:52:15.044Z,97488.22
2023-01-11T10:54:47.418Z,97489.84
2023-01-11T10:57:24.370Z,97486.28
2023-01-11T11:00:09.237Z,97475.28
2023-01-11T11:02:59.361Z,97481.09
2023-01-11T11:05:34.651Z,97481.09
2023-01-11T11:08:10.057Z,97471.53
2023-01-11T11:10:47.712Z,97470.72
2023-01-11T11:13:23.433Z,97473.16
2023-01-11T11:15:57.508Z,97472.50
2023-01-11T11:18:27.685Z,97473.34
2023-01-11T11:21:00.355Z,97471.25
2023-01-11T11:23:29.587Z,97465.75
2023-01-11T11:26:01.935Z,97470.13
2023-01-11T11:28:32.587Z,97462.66
2023-01-11T11:31:03.867Z,97461.84
2023-01-11T11:33:36.207Z,97466.56
2023-01-11T11:36:07.874Z,97451.47
2023-01-11T11:38:38.236Z,97447.59
2023-01-11T11:41:09.535Z,97442.72
2023-01-11T11:43:39.335Z,97448.22
2023-01-11T11:46:24.686Z,97454.88
2023-01-11T11:49:13.275Z,97450.47
2023-01-11T11:51:43.135Z,97441.72
2023-01-11T11:54:22.011Z,97439.59
2023-01-11T11:56:50.833Z,97436.03
2023-01-11T11:59:21.635Z,97444.63
2023-01-11T12:01:57.905Z,97439.75
2023-01-11T12:04:40.010Z,97434.25
2023-01-11T12:07:15.895Z,97427.91
2023-01-11T12:09:48.590Z,97434.88
2023-01-11T12:12:24.410Z,97426.63
2023-01-11T12:15:10.245Z,97420.59
2023-01-11T12:17:38.813Z,97430.81
2023-01-11T12:20:33.860Z,97428.38
2023-01-11T12:23:16.775Z,97427.88
2023-01-11T12:26:12.395Z,97421.88
2023-01-11T12:29:00.051Z,97425.75
2023-01-11T12:31:37.459Z,97423.00
2023-01-11T12:34:17.104Z,97421.69
2023-01-11T12:36:56.511Z,97426.38
2023-01-11T12:39:36.237Z,97420.38
2023-01-11T12:42:29.084Z,97421.84
2023-01-11T12:45:14.319Z,97419.41
2023-01-11T12:48:02.665Z,97416.66
2023-01-11T12:50:36.355Z,97416.97
2023-01-11T12:53:21.065Z,97404.63
2023-01-11T12:56:07.027Z,97415.66
2023-01-11T12:58:41.308Z,97420.66
2023-01-11T13:01:18.693Z,97409.16
2023-01-11T13:04:20.775Z,97418.53
2023-01-11T13:07:00.125Z,97422.41
2023-01-11T13:09:45.221Z,97420.78
2023-01-11T13:12:19.792Z,97415.91
2023-01-11T13:15:18.313Z,97413.03
2023-01-11T13:17:51.924Z,97416.78
2023-01-11T13:20:29.898Z,97415.03
2023-01-11T13:23:04.055Z,97423.13
2023-01-11T13:25:36.478Z,97426.38
2023-01-11T13:28:23.943Z,97426.56
2023-01-11T13:30:53.128Z,97416.88
2023-01-11T13:33:24.426Z,97424.31
2023-01-11T13:35:58.800Z,97428.38
2023-01-11T13:38:36.460Z,97428.88
2023-01-11T13:41:15.144Z,97438.75
2023-01-11T13:43:49.175Z,97439.56
2023-01-11T13:46:23.701Z,97437.94
2023-01-11T13:49:01.549Z,97444.25
2023-01-11T13:51:35.522Z,97448.16
2023-01-11T13:54:09.567Z,97444.91
2023-01-11T13:56:42.458Z,97447.16
2023-01-11T13:59:16.431Z,97448.28
2023-01-11T14:01:50.830Z,97455.72
2023-01-11T14:04:24.820Z,97459.59
2023-01-11T14:07:08.732Z,97462.38
2023-01-11T14:09:55.297Z,97470.63
2023-01-11T14:12:38.851Z,97470.63
2023-01-11T14:15:23.378Z,97468.19
2023-01-11T14:18:14.183Z,97480.81
2023-01-11T14:20:51.112Z,97478.56
2023-01-11T14:23:22.246Z,97488.94
2023-01-11T14:26:12.142Z,97487.81
2023-01-11T14:28:56.849Z,97492.19
2023-01-11T14:32:02.906Z,97506.47
2023-01-11T14:34:48.777Z,97519.91
2023-01-11T14:37:38.174Z,97513.59
2023-01-11T14:40:37.651Z,97529.00
2023-01-11T14:43:31.176Z,97526.25
2023-01-11T14:46:20.684Z,97527.06
2023-01-11T14:49:02.829Z,97527.88
2023-01-11T14:51:37.775Z,97527.88
2023-01-11T14:54:11.736Z,97533.69
2023-01-11T14:56:53.784Z,97529.81
2023-01-11T14:59:26.117Z,97537.25
2023-01-11T15:02:30.031Z,97529.63
2023-01-11T15:05:30.931Z,97539.50
2023-01-11T15:08:23.331Z,97547.75
2023-01-11T15:10:53.268Z,97546.63
2023-01-11T15:13:24.920Z,97564.78
2023-01-11T15:16:23.855Z,97559.78
2023-01-11T15:18:54.698Z,97570.28
2023-01-11T15:21:25.864Z,97568.66
2023-01-11T15:23:57.771Z,97580.81
2023-01-11T15:26:28.049Z,97591.31
2023-01-11T15:28:58.742Z,97586.94
2023-01-11T15:31:34.518Z,97589.69
2023-01-11T15:34:17.616Z,97588.88
2023-01-11T15:36:55.368Z,97591.13
2023-01-11T15:39:34.495Z,97595.81
2023-01-11T15:42:27.692Z,97610.72
2023-01-11T15:45:36.896Z,97612.97
2023-01-11T15:48:28.839Z,97624.78
2023-01-11T15:51:21.750Z,97623.97
2023-01-11T15:54:14.704Z,97627.88
2023-01-11T15:57:15.228Z,97641.13
2023-01-11T16:00:20.982Z,97644.38
2023-01-11T16:03:25.353Z,97657.63
2023-01-11T16:06:01.621Z,97650.50
2023-01-11T16:08:37.951Z,97668.97
2023-01-11T16:11:17.464Z,97678.34
2023-01-11T16:14:00.029Z,97681.09
2023-01-11T16:16:32.298Z,97686.91
2023-01-11T16:19:08.866Z,97696.00
2023-01-11T16:21:40.948Z,97699.06
2023-01-11T16:24:16.424Z,97701.81
2023-01-11T16:26:50.432Z,97702.63
2023-01-11T16:29:22.383Z,97710.56
2023-01-11T16:31:57.326Z,97707.69
2023-01-11T16:34:27.164Z,97716.47
2023-01-11T16:36:57.468Z,97712.28
2023-01-11T16:39:31.049Z,97721.84
2023-01-11T16:42:03.837Z,97727.38
2023-01-11T16:44:41.591Z,97732.88
2023-01-11T16:47:15.103Z,97741.63
2023-01-11T16:49:48.862Z,97748.78
2023-01-11T16:52:39.764Z,97758.16
2023-01-11T16:55:18.794Z,97763.16
2023-01-11T16:57:50.613Z,97762.34
2023-01-11T17:00:32.548Z,97769.28
2023-01-11T17:03:17.873Z,97775.09
2023-01-11T17:06:17.584Z,97772.66
2023-01-11T17:08:49.520Z,97773.78
2023-01-11T17:11:27.504Z,97784.28
2023-01-11T17:14:38.277Z,97788.16
2023-01-11T17:17:09.208Z,97791.22
2023-01-11T17:19:43.842Z,97795.91
2023-01-11T17:22:19.332Z,97792.66
2023-01-11T17:24:52.732Z,97791.84
2023-01-11T17:27:26.648Z,97806.41
2023-01-11T17:29:57.762Z,97813.84
2023-01-11T17:32:35.479Z,97806.72
2023-01-11T17:35:08.035Z,97811.41
2023-01-11T17:37:37.064Z,97808.16
2023-01-11T17:40:08.710Z,97812.84
2023-01-11T17:42:59.226Z,97815.09
2023-01-11T17:45:27.891Z,97824.47
2023-01-11T17:47:57.427Z,97821.19
2023-01-11T17:50:29.475Z,97826.72
2023-01-11T17:53:06.626Z,97823.13
2023-01-11T17:55:35.831Z,97820.38
2023-01-11T17:58:22.636Z,97832.50
2023-01-11T18:01:18.088Z,97832.00
2023-01-11T18:03:48.668Z,97843.00
2023-01-11T18:06:24.855Z,97847.69
2023-01-11T18:08:54.828Z,97847.41
2023-01-11T18:11:25.780Z,97846.78
2023-01-11T18:13:57.324Z,97845.06
2023-01-11T18:16:26.251Z,97849.94
2023-01-11T18:18:55.972Z,97857.09
2023-01-11T18:21:52.872Z,97852.09
2023-01-11T18:24:29.513Z,97851.78
2023-01-11T18:27:31.560Z,97853.72
2023-01-11T18:30:06.146Z,97866.06
2023-01-11T18:32:43.214Z,97857.50
2023-01-11T18:35:18.884Z,97860.75
2023-01-11T18:37:47.880Z,97854.44
2023-01-11T18:40:17.722Z,97858.53
2023-01-11T18:43:04.322Z,97856.59
2023-01-11T18:45:38.317Z,97867.28
2023-01-11T18:48:11.895Z,97863.41
2023-01-11T18:50:42.062Z,97864.22
2023-01-11T18:53:11.941Z,97868.91
2023-01-11T18:55:41.070Z,97879.31
2023-01-11T18:58:10.293Z,97877.69
2023-01-11T19:00:40.970Z,97884.31
2023-01-11T19:03:11.288Z,97887.69
2023-01-11T19:05:39.995Z,97904.22
2023-01-11T19:08:08.662Z,97901.16
2023-01-11T19:10:37.156Z,97896.47
2023-01-11T19:13:05.789Z,97900.84
2023-01-11T19:15:35.592Z,97913.50
2023-01-11T19:18:06.024Z,97911.56
2023-01-11T19:20:34.475Z,97907.69
2023-01-11T19:23:02.933Z,97904.63
2023-01-11T19:25:32.025Z,97903.50
2023-01-11T19:28:00.483Z,97904.00
2023-01-11T19:30:29.015Z,97904.00
2023-01-11T19:32:57.505Z,97911.16
2023-01-11T19:35:27.409Z,97913.59
2023-01-11T19:37:55.961Z,97897.88
2023-01-11T19:40:24.476Z,97904.22
2023-01-11T19:42:53.253Z,97908.28
2023-01-11T19:45:21.856Z,97907.47
2023-01-11T19:47:50.356Z,97907.78
2023-01-11T19:50:19.281Z,97914.91
2023-01-11T19:52:49.461Z,97905.03
2023-01-11T19:55:18.154Z,97913.81
2023-01-11T19:57:46.844Z,97905.53
2023-01-11T20:00:17.300Z,97913.50
2023-01-11T20:02:45.826Z,97909.09
2023-01-11T20:05:14.492Z,97918.19
2023-01-11T20:07:43.035Z,97915.75
2023-01-11T20:10:13.068Z,97919.31
2023-01-11T20:12:41.520Z,97920.94
2023-01-11T20:15:11.178Z,97926.44
2023-01-11T20:17:39.670Z,97927.56
2023-01-11T20:20:09.450Z,97937.47
2023-01-11T20:22:37.980Z,97929.22
2023-01-11T20:25:07.594Z,97935.53
2023-01-11T20:27:38.646Z,97941.84
2023-01-11T20:30:09.313Z,97937.47
2023-01-11T20:32:42.258Z,97937.47
2023-01-11T20:35:11.737Z,97946.25
2023-01-11T20:37:40.253Z,97942.16
2023-01-11T20:40:11.848Z,97955.13
2023-01-11T20:42:43.188Z,97952.34
2023-01-11T20:45:12.301Z,97961.75
2023-01-11T20:47:40.810Z,97962.88
2023-01-11T20:50:10.648Z,97965.81
2023-01-11T20:52:39.272Z,97957.88
2023-01-11T20:55:08.527Z,97956.25
2023-01-11T20:57:37.103Z,97952.97
2023-01-11T21:02:38.423Z,97978.66
2023-01-11T21:05:07.760Z,97981.44
2023-01-11T21:07:36.452Z,97976.81
2023-01-11T21:10:05.534Z,97980.91
2023-01-11T21:12:34.035Z,97982.25
2023-01-11T21:15:02.458Z,97983.88
2023-01-11T21:17:32.302Z,97994.06
2023-01-11T21:20:00.862Z,98003.16
2023-01-11T21:22:29.379Z,97994.88
2023-01-11T21:24:57.941Z,97993.78
2023-01-11T21:27:26.660Z,97993.78
2023-01-11T21:29:55.232Z,97988.25
2023-01-11T21:32:23.736Z,97988.56
2023-01-11T21:34:53.591Z,97988.25
2023-01-11T21:37:24.610Z,97982.75
2023-01-11T21:39:53.037Z,97986.63
2023-01-11T21:42:21.550Z,97986.63
2023-01-11T21:44:50.045Z,97978.38
2023-01-11T21:47:19.742Z,97974.78
2023-01-11T21:49:48.272Z,97978.38
2023-01-11T21:52:18.105Z,97987.44
2023-01-11T21:54:47.604Z,97987.44
2023-01-11T21:57:16.084Z,97989.91
2023-01-11T21:59:44.593Z,97993.78
2023-01-11T22:02:13.205Z,97991.00
2023-01-11T22:04:41.681Z,97992.13
2023-01-11T22:07:10.113Z,97999.28
2023-01-11T22:09:47.082Z,97995.41
2023-01-11T22:12:28.174Z,97998.16
2023-01-11T22:14:56.597Z,98002.53
2023-01-11T22:17:25.007Z,97997.03
2023-01-11T22:19:53.444Z,98002.03
2023-01-11T22:22:22.005Z,97995.41
2023-01-11T22:24:51.861Z,97992.66
2023-01-11T22:27:20.729Z,97990.50
2023-01-11T22:29:50.849Z,97991.94
2023-01-11T22:32:19.639Z,97992.53
2023-01-11T22:34:48.213Z,97988.16
2023-01-11T22:37:16.669Z,97981.31
2023-01-11T22:39:45.146Z,97988.75
2023-01-11T22:42:14.936Z,97994.56
2023-01-11T22:44:43.388Z,97998.44
2023-01-11T22:47:11.782Z,98002.31
2023-01-11T22:49:40.167Z,97998.22
2023-01-11T22:52:08.623Z,98012.81
2023-01-11T22:54:37.095Z,98009.22
2023-01-11T22:57:05.609Z,98018.63
2023-01-11T22:59:35.433Z,98016.69
2023-01-11T23:02:03.889Z,98023.31
2023-01-11T23:04:33.151Z,98016.16
2023-01-11T23:07:01.714Z,98017.28
2023-01-11T23:09:30.204Z,98026.66
2023-01-11T23:12:15.982Z,98029.41
2023-01-11T23:14:45.822Z,98034.91
2023-01-11T23:17:14.257Z,98033.28
2023-01-11T23:19:43.663Z,98026.97
2023-01-11T23:22:12.497Z,98015.13
2023-01-11T23:24:41.134Z,98011.84
2023-01-11T23:27:09.607Z,98004.41
2023-01-11T23:29:38.121Z,98001.97
2023-01-11T23:32:08.098Z,98012.97
2023-01-11T23:34:36.569Z,98012.47
2023-01-11T23:37:05.177Z,98006.13
2023-01-11T23:39:33.619Z,98012.75
2023-01-11T23:42:19.894Z,97999.31
2023-01-11T23:44:48.254Z,98000.41
2023-01-11T23:47:23.883Z,97980.63
2023-01-11T23:49:53.820Z,97979.00
2023-01-11T23:52:24.452Z,97988.38
2023-01-11T23:54:53.653Z,97994.19
2023-01-11T23:57:23.105Z,97996.72
2023-01-11T23:59:51.800Z,97997.53
